Latest news:   HOT, HOT, HOT in the South East of Queensland. See how hot we get with this hourly updating chart. Click here Wednesday, 25 Jan 2017

OceanView Weather - Today's Weather Data

Time

Temp

Humid

Dew
Point
Feels
Like
Wind

Wind
Dir
Rain

Air Pres.

Solar
Rad.
UV Index

09:11 26.3°C 72% 20.8°C 30.1°C 2.6Kts E 0.0mm 1014.8hpa 6.0
09:09 26.0°C 73% 20.8°C 29.8°C 2.6Kts ENE 0.0mm 1014.7hpa 5.9
09:07 25.7°C 73% 20.5°C 29.0°C 0.0Kts E 0.0mm 1014.8hpa 5.8
09:05 25.3°C 73% 20.1°C 28.4°C 1.7Kts NNE 0.0mm 1014.7hpa 5.7
09:03 25.3°C 71% 19.7°C 28.2°C 1.7Kts E 0.0mm 1014.8hpa 5.6
09:01 25.5°C 71% 19.9°C 28.5°C 2.6Kts NNW 0.0mm 1014.8hpa 5.5
08:59 25.7°C 71% 20.0°C 28.8°C 2.6Kts NE 0.0mm 1014.8hpa 5.4
08:57 25.7°C 72% 20.3°C 28.9°C 3.5Kts ENE 0.0mm 1014.8hpa 5.3
08:55 25.8°C 70% 19.9°C 28.8°C 2.6Kts NNE 0.0mm 1014.9hpa 5.2
08:53 26.0°C 72% 20.6°C 29.4°C 1.7Kts NE 0.0mm 1014.8hpa 5.1
08:51 25.9°C 72% 20.5°C 29.2°C 0.9Kts NE 0.0mm 1014.9hpa 5.0
08:49 25.7°C 73% 20.5°C 29.0°C 0.9Kts NE 0.0mm 1014.9hpa 4.9
08:47 25.4°C 72% 20.0°C 28.5°C 2.6Kts ENE 0.0mm 1014.9hpa 4.8
08:45 25.4°C 71% 19.8°C 28.4°C 2.6Kts NE 0.0mm 1014.9hpa 4.7
08:43 25.6°C 73% 20.4°C 28.9°C 0.9Kts NNW 0.0mm 1015.0hpa 4.6
08:41 25.7°C 71% 20.0°C 28.8°C 0.0Kts NE 0.0mm 1015.0hpa 4.5
08:39 25.7°C 71% 20.1°C 28.8°C 0.9Kts WNW 0.0mm 1014.9hpa 4.4
08:37 25.7°C 72% 20.2°C 29.2°C 1.7Kts ESE 0.0mm 1015.0hpa 4.4
08:35 25.6°C 73% 20.4°C 28.9°C 0.0Kts NE 0.0mm 1015.0hpa 4.2
08:33 25.4°C 73% 20.2°C 28.9°C 3.5Kts ENE 0.0mm 1015.0hpa 4.1
08:31 25.3°C 71% 19.6°C 28.5°C 0.0Kts NNW 0.0mm 1015.0hpa 4.1
08:29 25.4°C 72% 20.0°C 28.8°C 1.7Kts NNW 0.0mm 1015.0hpa 3.9
08:27 25.4°C 72% 20.0°C 28.8°C 0.9Kts ENE 0.0mm 1015.0hpa 3.9
08:25 25.3°C 73% 20.1°C 28.7°C 0.9Kts ENE 0.0mm 1015.0hpa 3.8
08:23 25.2°C 74% 20.2°C 28.7°C 0.9Kts ENE 0.0mm 1015.0hpa 3.7
08:21 24.9°C 73% 19.7°C 28.1°C 0.0Kts ENE 0.0mm 1014.9hpa 3.6
08:19 24.8°C 74% 19.9°C 28.1°C 1.7Kts NNE 0.0mm 1014.9hpa 3.5
08:17 24.7°C 74% 19.7°C 28.0°C 0.0Kts ENE 0.0mm 1015.0hpa 3.4
08:15 24.6°C 75% 19.8°C 27.9°C 1.7Kts ENE 0.0mm 1015.0hpa 3.3
08:13 24.3°C 74% 19.3°C 27.1°C 0.9Kts N 0.0mm 1014.9hpa 3.3
08:11 24.3°C 74% 19.3°C 27.1°C 0.9Kts N 0.0mm 1015.0hpa 3.2
08:09 24.3°C 74% 19.3°C 27.4°C 0.0Kts N 0.0mm 1015.1hpa 3.1
08:07 24.3°C 74% 19.4°C 27.4°C 0.9Kts N 0.0mm 1015.0hpa 3.0
08:05 24.5°C 73% 19.3°C 27.6°C 2.6Kts N 0.0mm 1015.0hpa 2.9
08:03 24.7°C 73% 19.6°C 27.9°C 2.6Kts N 0.0mm 1015.0hpa 2.9
08:01 24.7°C 74% 19.7°C 28.0°C 0.0Kts NNE 0.0mm 1015.0hpa 2.8
07:59 24.6°C 73% 19.4°C 27.7°C 0.0Kts NNE 0.0mm 1015.0hpa 2.7
07:57 24.6°C 75% 19.8°C 27.9°C 0.9Kts NNE 0.0mm 1015.0hpa 2.6
07:55 24.4°C 73% 19.3°C 27.4°C 0.9Kts E 0.0mm 1015.0hpa 2.6
07:53 24.6°C 73% 19.4°C 27.7°C 0.9Kts NNE 0.0mm 1015.1hpa 2.5
07:51 24.7°C 72% 19.3°C 27.8°C 0.9Kts NNE 0.0mm 1015.0hpa 2.4
07:49 24.8°C 72% 19.4°C 27.9°C 0.9Kts NNE 0.0mm 1015.0hpa 2.4
07:47 24.8°C 72% 19.4°C 28.2°C 1.7Kts NE 0.0mm 1015.0hpa 2.3
07:45 24.9°C 73% 19.8°C 28.5°C 0.0Kts ENE 0.0mm 1015.0hpa 2.2
07:43 24.9°C 72% 19.5°C 28.4°C 0.9Kts E 0.0mm 1015.0hpa 2.2
07:41 24.9°C 72% 19.5°C 28.4°C 0.0Kts NE 0.0mm 1014.9hpa 2.1
07:39 24.8°C 72% 19.4°C 28.2°C 0.0Kts NE 0.0mm 1015.0hpa 2.0
07:37 24.8°C 72% 19.4°C 28.2°C 0.0Kts NE 0.0mm 1015.1hpa 2.0
07:35 24.9°C 71% 19.3°C 28.3°C 0.0Kts NNE 0.0mm 1015.1hpa 1.9
07:33 25.0°C 70% 19.1°C 28.3°C 0.0Kts NNE 0.0mm 1015.1hpa 1.9
07:31 25.2°C 70% 19.4°C 28.6°C 0.0Kts NNE 0.0mm 1015.1hpa 1.8
07:29 25.4°C 71% 19.7°C 29.0°C 0.0Kts NE 0.0mm 1015.0hpa 1.7
07:27 25.3°C 71% 19.7°C 28.8°C 0.0Kts WSW 0.0mm 1015.0hpa 1.7
07:25 25.3°C 72% 19.9°C 28.9°C 0.0Kts ENE 0.0mm 1015.1hpa 1.6
07:23 25.2°C 71% 19.6°C 28.7°C 0.0Kts ENE 0.0mm 1015.0hpa 1.6
07:21 25.2°C 71% 19.5°C 28.7°C 0.0Kts ENE 0.0mm 1015.0hpa 1.5
07:19 25.1°C 72% 19.7°C 28.7°C 0.9Kts ENE 0.0mm 1015.0hpa 1.4
07:17 25.0°C 74% 20.0°C 28.7°C 0.9Kts ESE 0.0mm 1014.9hpa 1.4
07:15 24.8°C 73% 19.6°C 28.3°C 0.0Kts E 0.0mm 1015.0hpa 1.4
07:13 24.6°C 73% 19.4°C 28.0°C 0.9Kts E 0.0mm 1014.9hpa 1.3
07:11 24.4°C 73% 19.3°C 27.7°C 0.0Kts SSW 0.0mm 1014.9hpa 1.3
07:09 24.3°C 74% 19.3°C 27.7°C 0.0Kts SSW 0.0mm 1014.8hpa 1.2
07:07 24.1°C 74% 19.2°C 27.4°C 0.0Kts SSW 0.0mm 1014.8hpa 1.2
07:05 23.9°C 74% 19.0°C 27.1°C 0.0Kts SSW 0.0mm 1014.8hpa 1.1
07:03 23.8°C 76% 19.3°C 27.2°C 0.0Kts SSW 0.0mm 1014.7hpa 1.1
07:01 23.6°C 76% 19.1°C 26.9°C 0.0Kts SSW 0.0mm 1014.6hpa 1.0
06:59 23.4°C 77% 19.2°C 26.7°C 0.0Kts SSW 0.0mm 1014.6hpa 1.0
06:57 23.3°C 78% 19.2°C 26.6°C 0.0Kts SSW 0.0mm 1014.7hpa 1.0
06:55 23.2°C 79% 19.3°C 26.6°C 0.0Kts SSW 0.0mm 1014.7hpa 0.9
06:53 23.0°C 79% 19.2°C 26.3°C 0.0Kts SSW 0.0mm 1014.7hpa 0.9
06:51 22.8°C 80% 19.2°C 26.1°C 0.0Kts SSW 0.0mm 1014.7hpa 0.8
06:49 22.6°C 80% 19.0°C 25.8°C 1.7Kts SSW 0.0mm 1014.7hpa 0.8
06:47 22.5°C 80% 18.9°C 25.7°C 0.0Kts SSW 0.0mm 1014.6hpa 0.8
06:45 22.3°C 81% 18.9°C 25.5°C 0.0Kts SSW 0.0mm 1014.6hpa 0.7
06:43 22.2°C 81% 18.8°C 25.3°C 0.0Kts SSW 0.0mm 1014.7hpa 0.7
06:41 22.0°C 81% 18.6°C 25.0°C 0.0Kts SSW 0.0mm 1014.6hpa 0.7
06:39 21.9°C 82% 18.7°C 25.0°C 0.9Kts W 0.0mm 1014.7hpa 0.6
06:37 21.8°C 82% 18.6°C 24.9°C 0.0Kts W 0.0mm 1014.6hpa 0.6
06:35 21.7°C 82% 18.5°C 24.7°C 0.0Kts W 0.0mm 1014.6hpa 0.6
06:33 21.6°C 83% 18.5°C 24.6°C 0.0Kts W 0.0mm 1014.6hpa 0.5
06:31 21.4°C 83% 18.4°C 24.4°C 0.9Kts W 0.0mm 1014.6hpa 0.5
06:29 21.3°C 84% 18.5°C 24.3°C 0.0Kts W 0.0mm 1014.6hpa 0.5
06:27 21.2°C 84% 18.4°C 24.2°C 0.0Kts W 0.0mm 1014.6hpa 0.0
06:25 21.1°C 84% 18.2°C 24.0°C 0.0Kts W 0.0mm 1014.5hpa 0.0
06:23 20.9°C 85% 18.3°C 23.8°C 0.0Kts W 0.0mm 1014.5hpa 0.0
06:21 20.8°C 85% 18.2°C 23.7°C 0.0Kts WNW 0.0mm 1014.5hpa 0.0
06:19 20.7°C 85% 18.1°C 23.5°C 0.0Kts WNW 0.0mm 1014.4hpa 0.0
06:17 20.6°C 85% 17.9°C 23.4°C 0.0Kts WNW 0.0mm 1014.4hpa 0.0
06:15 20.4°C 85% 17.8°C 23.1°C 0.0Kts SSW 0.0mm 1014.4hpa 0.0
06:13 20.3°C 86% 17.9°C 23.0°C 0.0Kts SSW 0.0mm 1014.5hpa 0.0
06:11 20.3°C 85% 17.7°C 23.0°C 0.9Kts SSW 0.0mm 1014.4hpa 0.0
06:09 20.2°C 85% 17.6°C 22.8°C 0.0Kts SSW 0.0mm 1014.4hpa 0.0
06:07 20.1°C 85% 17.5°C 22.7°C 0.0Kts SSW 0.0mm 1014.3hpa 0.0
06:05 20.1°C 86% 17.7°C 22.8°C 0.0Kts SSW 0.0mm 1014.3hpa 0.0
06:03 20.1°C 86% 17.6°C 22.8°C 0.0Kts SW 0.0mm 1014.3hpa 0.0
06:01 20.0°C 86% 17.6°C 22.6°C 0.0Kts SW 0.0mm 1014.2hpa 0.0
05:59 20.0°C 86% 17.6°C 22.6°C 0.0Kts WNW 0.0mm 1014.3hpa 0.0
05:57 19.9°C 86% 17.5°C 22.5°C 0.9Kts WNW 0.0mm 1014.3hpa 0.0
05:55 19.9°C 86% 17.5°C 22.5°C 0.0Kts WNW 0.0mm 1014.2hpa 0.0
05:53 19.9°C 86% 17.5°C 22.5°C 0.0Kts WNW 0.0mm 1014.2hpa 0.0
05:51 19.8°C 86% 17.4°C 22.3°C 1.7Kts WNW 0.0mm 1014.2hpa 0.0
05:49 19.8°C 86% 17.4°C 22.3°C 0.0Kts WNW 0.0mm 1014.3hpa 0.0
05:47 19.8°C 85% 17.2°C 22.3°C 0.0Kts WNW 0.0mm 1014.3hpa 0.0
05:45 19.8°C 85% 17.2°C 22.3°C 0.0Kts WNW 0.0mm 1014.3hpa 0.0
05:43 19.8°C 85% 17.2°C 22.3°C 0.0Kts WNW 0.0mm 1014.3hpa 0.0
05:41 19.8°C 86% 17.4°C 22.3°C 0.0Kts WNW 0.0mm 1014.3hpa 0.0
05:39 19.7°C 85% 17.1°C 22.1°C 0.0Kts W 0.0mm 1014.2hpa 0.0
05:37 19.7°C 85% 17.1°C 22.1°C 0.0Kts WNW 0.0mm 1014.1hpa 0.0
05:35 19.7°C 85% 17.1°C 22.1°C 0.0Kts WNW 0.0mm 1014.1hpa 0.0
05:33 19.7°C 85% 17.1°C 21.8°C 0.0Kts WNW 0.0mm 1014.1hpa 0.0
05:31 19.7°C 85% 17.1°C 21.8°C 0.0Kts WNW 0.0mm 1014.0hpa 0.0
05:29 19.7°C 85% 17.1°C 21.8°C 0.0Kts WSW 0.0mm 1014.0hpa 0.0
05:27 19.7°C 85% 17.1°C 21.8°C 0.9Kts WNW 0.0mm 1014.0hpa 0.0
05:25 19.7°C 85% 17.1°C 21.8°C 0.0Kts SSW 0.0mm 1014.0hpa 0.0
05:23 19.7°C 85% 17.1°C 21.8°C 1.7Kts SSW 0.0mm 1014.0hpa 0.0
05:21 19.7°C 85% 17.1°C 22.1°C 0.9Kts SSW 0.0mm 1013.9hpa 0.0
05:19 19.7°C 85% 17.1°C 22.1°C 2.6Kts SSW 0.0mm 1013.8hpa 0.0
05:17 19.7°C 85% 17.1°C 22.1°C 0.0Kts SSW 0.0mm 1013.8hpa 0.0
05:15 19.7°C 85% 17.1°C 22.1°C 0.0Kts SSW 0.0mm 1013.7hpa 0.0
05:13 19.8°C 85% 17.2°C 22.3°C 0.9Kts SSW 0.0mm 1013.7hpa 0.0
05:11 19.8°C 85% 17.2°C 22.3°C 0.0Kts SSW 0.0mm 1013.7hpa 0.0
05:09 19.8°C 85% 17.2°C 22.3°C 0.9Kts SSW 0.0mm 1013.7hpa 0.0
05:07 19.8°C 85% 17.2°C 22.3°C 0.9Kts SSW 0.0mm 1013.6hpa 0.0
05:05 19.8°C 85% 17.2°C 22.3°C 0.0Kts SSW 0.0mm 1013.6hpa 0.0
05:03 19.8°C 85% 17.2°C 22.3°C 0.0Kts SSW 0.0mm 1013.6hpa 0.0
05:01 19.9°C 85% 17.3°C 22.4°C 0.0Kts SSW 0.0mm 1013.7hpa 0.0
04:59 19.9°C 85% 17.3°C 22.4°C 0.0Kts SSW 0.0mm 1013.6hpa 0.0
04:57 19.9°C 85% 17.3°C 22.4°C 0.0Kts SSW 0.0mm 1013.6hpa 0.0
04:55 19.9°C 85% 17.3°C 22.4°C 0.0Kts SSW 0.0mm 1013.6hpa 0.0
04:53 19.9°C 85% 17.3°C 22.4°C 0.0Kts SSW 0.0mm 1013.6hpa 0.0
04:51 19.9°C 85% 17.3°C 22.4°C 0.0Kts SSW 0.0mm 1013.5hpa 0.0
04:49 19.9°C 85% 17.3°C 22.4°C 0.0Kts SSW 0.0mm 1013.5hpa 0.0
04:47 19.9°C 85% 17.3°C 22.4°C 0.0Kts SSW 0.0mm 1013.5hpa 0.0
04:45 19.9°C 85% 17.3°C 22.4°C 0.0Kts SSW 0.0mm 1013.4hpa 0.0
04:43 19.8°C 85% 17.2°C 22.3°C 0.0Kts SSW 0.0mm 1013.3hpa 0.0
04:41 19.8°C 85% 17.2°C 22.3°C 0.0Kts SSW 0.0mm 1013.3hpa 0.0
04:39 19.8°C 85% 17.2°C 22.3°C 0.0Kts SSW 0.0mm 1013.3hpa 0.0
04:37 19.8°C 85% 17.2°C 22.3°C 0.0Kts SSW 0.0mm 1013.3hpa 0.0
04:35 19.8°C 85% 17.2°C 22.3°C 0.9Kts SSW 0.0mm 1013.3hpa 0.0
04:33 19.8°C 85% 17.2°C 22.3°C 0.0Kts SSW 0.0mm 1013.1hpa 0.0
04:31 19.8°C 85% 17.2°C 22.3°C 0.0Kts SSW 0.0mm 1013.0hpa 0.0
04:29 19.8°C 85% 17.2°C 22.3°C 0.0Kts SSW 0.0mm 1013.0hpa 0.0
04:27 19.8°C 85% 17.2°C 22.3°C 0.0Kts SSW 0.0mm 1013.0hpa 0.0
04:25 19.8°C 85% 17.2°C 21.9°C 0.0Kts SSW 0.0mm 1013.0hpa 0.0
04:23 19.9°C 85% 17.3°C 22.1°C 0.0Kts SSW 0.0mm 1012.9hpa 0.0
04:21 19.9°C 85% 17.3°C 22.1°C 0.9Kts SSW 0.0mm 1012.9hpa 0.0
04:19 19.9°C 85% 17.3°C 22.1°C 0.0Kts SSW 0.0mm 1012.9hpa 0.0
04:17 19.9°C 85% 17.3°C 22.4°C 1.7Kts SSW 0.0mm 1012.8hpa 0.0
04:15 19.9°C 85% 17.3°C 22.4°C 0.9Kts SSW 0.0mm 1012.8hpa 0.0
04:13 19.9°C 85% 17.3°C 22.4°C 0.0Kts SSW 0.0mm 1012.7hpa 0.0
04:11 19.9°C 85% 17.3°C 22.4°C 0.0Kts SSW 0.0mm 1012.7hpa 0.0
04:09 19.9°C 85% 17.3°C 22.4°C 0.0Kts SSW 0.0mm 1012.7hpa 0.0
04:07 19.8°C 85% 17.2°C 22.3°C 0.0Kts SSW 0.0mm 1012.7hpa 0.0
04:05 19.8°C 85% 17.2°C 22.3°C 0.0Kts SSW 0.0mm 1012.6hpa 0.0
04:03 19.8°C 85% 17.2°C 22.3°C 0.9Kts SSW 0.0mm 1012.6hpa 0.0
04:01 19.8°C 85% 17.2°C 22.3°C 0.0Kts SSW 0.0mm 1012.6hpa 0.0
03:59 19.8°C 85% 17.2°C 22.3°C 0.0Kts SSW 0.0mm 1012.7hpa 0.0
03:57 19.7°C 85% 17.1°C 21.8°C 0.0Kts SSW 0.0mm 1012.7hpa 0.0
03:55 19.8°C 85% 17.2°C 21.9°C 0.0Kts SSW 0.0mm 1012.6hpa 0.0
03:53 19.8°C 85% 17.2°C 21.9°C 0.0Kts SSW 0.0mm 1012.6hpa 0.0
03:51 19.8°C 85% 17.2°C 21.9°C 0.0Kts SSW 0.0mm 1012.6hpa 0.0
03:49 19.8°C 85% 17.2°C 21.9°C 0.9Kts SSW 0.0mm 1012.6hpa 0.0
03:47 19.8°C 85% 17.2°C 22.3°C 1.7Kts SSW 0.0mm 1012.6hpa 0.0
03:45 19.8°C 85% 17.2°C 22.3°C 0.9Kts SSW 0.0mm 1012.6hpa 0.0
03:43 19.8°C 85% 17.2°C 22.3°C 0.0Kts SSW 0.0mm 1012.6hpa 0.0
03:41 19.8°C 85% 17.2°C 22.3°C 0.0Kts SSW 0.0mm 1012.6hpa 0.0
03:39 19.8°C 85% 17.2°C 22.3°C 0.0Kts SSW 0.0mm 1012.5hpa 0.0
03:37 19.8°C 85% 17.2°C 22.3°C 0.0Kts SSW 0.0mm 1012.5hpa 0.0
03:35 19.8°C 85% 17.2°C 22.3°C 0.0Kts SSW 0.0mm 1012.5hpa 0.0
03:33 19.8°C 85% 17.2°C 22.3°C 0.9Kts SSW 0.0mm 1012.4hpa 0.0
03:31 19.8°C 85% 17.2°C 22.3°C 1.7Kts SSW 0.0mm 1012.4hpa 0.0
03:29 19.8°C 85% 17.2°C 22.3°C 0.0Kts SSW 0.0mm 1012.5hpa 0.0
03:27 19.8°C 85% 17.2°C 22.3°C 0.0Kts SSW 0.0mm 1012.5hpa 0.0
03:25 19.7°C 85% 17.1°C 22.1°C 0.0Kts SSW 0.0mm 1012.5hpa 0.0
03:23 19.7°C 85% 17.1°C 22.1°C 0.0Kts SSW 0.0mm 1012.5hpa 0.0
03:21 19.7°C 85% 17.1°C 22.1°C 0.0Kts SSW 0.0mm 1012.5hpa 0.0
03:19 19.7°C 85% 17.1°C 22.1°C 0.0Kts SSW 0.0mm 1012.5hpa 0.0
03:17 19.7°C 85% 17.1°C 22.1°C 0.0Kts SSW 0.0mm 1012.5hpa 0.0
03:15 19.7°C 85% 17.1°C 22.1°C 0.9Kts SSW 0.0mm 1012.6hpa 0.0
03:13 19.7°C 85% 17.1°C 22.1°C 0.0Kts SSW 0.0mm 1012.5hpa 0.0
03:11 19.7°C 85% 17.1°C 22.1°C 0.0Kts SSW 0.0mm 1012.5hpa 0.0
03:09 19.8°C 85% 17.2°C 22.3°C 0.0Kts SSW 0.0mm 1012.4hpa 0.0
03:07 19.8°C 85% 17.2°C 22.3°C 0.0Kts SSW 0.0mm 1012.4hpa 0.0
03:05 19.8°C 85% 17.2°C 22.3°C 0.0Kts SSW 0.0mm 1012.5hpa 0.0
03:03 19.8°C 85% 17.2°C 22.3°C 0.0Kts SSW 0.0mm 1012.4hpa 0.0
03:01 19.8°C 85% 17.2°C 22.3°C 0.0Kts SSW 0.0mm 1012.4hpa 0.0
02:59 19.8°C 85% 17.2°C 22.3°C 0.0Kts SSW 0.0mm 1012.5hpa 0.0
02:57 19.8°C 85% 17.2°C 22.3°C 0.0Kts SSW 0.0mm 1012.4hpa 0.0
02:55 19.8°C 85% 17.2°C 22.3°C 0.0Kts SSW 0.0mm 1012.4hpa 0.0
02:53 19.8°C 85% 17.2°C 22.3°C 0.0Kts SSW 0.0mm 1012.5hpa 0.0
02:51 19.9°C 85% 17.3°C 22.4°C 0.0Kts SSW 0.0mm 1012.5hpa 0.0
02:49 19.9°C 85% 17.3°C 22.1°C 0.0Kts SSW 0.0mm 1012.5hpa 0.0
02:47 19.9°C 85% 17.3°C 22.1°C 0.9Kts SSW 0.0mm 1012.5hpa 0.0
02:45 19.9°C 85% 17.3°C 22.1°C 0.0Kts SSW 0.0mm 1012.4hpa 0.0
02:43 19.9°C 85% 17.3°C 22.1°C 0.0Kts SSW 0.0mm 1012.4hpa 0.0
02:41 19.9°C 85% 17.3°C 22.4°C 1.7Kts SSW 0.0mm 1012.5hpa 0.0
02:39 19.8°C 85% 17.2°C 22.3°C 0.0Kts NW 0.0mm 1012.5hpa 0.0
02:37 19.9°C 85% 17.3°C 22.4°C 0.0Kts NW 0.0mm 1012.5hpa 0.0
02:35 19.9°C 85% 17.3°C 22.4°C 0.0Kts NW 0.0mm 1012.4hpa 0.0
02:33 19.9°C 85% 17.3°C 22.4°C 0.0Kts NW 0.0mm 1012.5hpa 0.0
02:31 19.9°C 85% 17.3°C 22.4°C 0.0Kts NW 0.0mm 1012.5hpa 0.0
02:29 19.9°C 85% 17.3°C 22.4°C 0.0Kts NW 0.0mm 1012.5hpa 0.0
02:27 19.9°C 85% 17.3°C 22.4°C 0.0Kts NW 0.0mm 1012.4hpa 0.0
02:25 19.9°C 85% 17.3°C 22.4°C 0.0Kts NW 0.0mm 1012.4hpa 0.0
02:23 19.9°C 85% 17.3°C 22.4°C 0.0Kts NW 0.0mm 1012.4hpa 0.0
02:21 19.9°C 85% 17.3°C 22.4°C 0.9Kts NW 0.0mm 1012.5hpa 0.0
02:19 19.9°C 85% 17.3°C 22.4°C 0.0Kts NW 0.0mm 1012.4hpa 0.0
02:17 19.9°C 85% 17.3°C 22.4°C 0.0Kts NW 0.0mm 1012.5hpa 0.0
02:15 19.9°C 85% 17.3°C 22.4°C 0.0Kts NW 0.0mm 1012.5hpa 0.0
02:13 19.9°C 85% 17.3°C 22.4°C 0.0Kts NW 0.0mm 1012.4hpa 0.0
02:11 19.9°C 85% 17.3°C 22.4°C 0.0Kts NW 0.0mm 1012.3hpa 0.0
02:09 19.9°C 85% 17.3°C 22.4°C 0.0Kts NW 0.0mm 1012.3hpa 0.0
02:07 19.9°C 85% 17.3°C 22.4°C 0.9Kts NW 0.0mm 1012.3hpa 0.0
02:05 20.0°C 85% 17.4°C 22.5°C 0.0Kts NW 0.0mm 1012.3hpa 0.0
02:03 20.0°C 85% 17.4°C 22.5°C 0.0Kts NW 0.0mm 1012.3hpa 0.0
02:01 20.0°C 85% 17.4°C 22.5°C 0.0Kts NW 0.0mm 1012.3hpa 0.0
01:59 20.1°C 84% 17.3°C 22.6°C 0.9Kts NW 0.0mm 1012.3hpa 0.0
01:57 20.1°C 84% 17.3°C 22.6°C 0.0Kts NW 0.0mm 1012.3hpa 0.0
01:55 20.1°C 84% 17.3°C 22.6°C 0.0Kts NW 0.0mm 1012.3hpa 0.0
01:53 20.2°C 84% 17.4°C 22.7°C 0.0Kts NW 0.0mm 1012.3hpa 0.0
01:51 20.2°C 84% 17.4°C 22.7°C 0.0Kts NW 0.0mm 1012.4hpa 0.0
01:49 20.2°C 84% 17.4°C 22.7°C 0.0Kts NW 0.0mm 1012.4hpa 0.0
01:47 20.2°C 84% 17.4°C 22.7°C 0.0Kts NW 0.0mm 1012.4hpa 0.0
01:45 20.3°C 84% 17.5°C 22.9°C 1.7Kts NW 0.0mm 1012.4hpa 0.0
01:43 20.3°C 84% 17.5°C 22.9°C 0.0Kts NW 0.0mm 1012.4hpa 0.0
01:41 20.3°C 84% 17.5°C 22.9°C 0.0Kts NW 0.0mm 1012.4hpa 0.0
01:39 20.3°C 84% 17.5°C 22.9°C 0.0Kts NW 0.0mm 1012.5hpa 0.0
01:37 20.3°C 84% 17.5°C 22.6°C 0.0Kts NNW 0.0mm 1012.5hpa 0.0
01:35 20.3°C 84% 17.5°C 22.6°C 0.0Kts NW 0.0mm 1012.4hpa 0.0
01:33 20.3°C 85% 17.7°C 22.6°C 0.9Kts NW 0.0mm 1012.4hpa 0.0
01:31 20.3°C 85% 17.7°C 22.4°C 0.0Kts NW 0.0mm 1012.4hpa 0.0
01:29 20.2°C 85% 17.6°C 22.5°C 0.9Kts NW 0.0mm 1012.4hpa 0.0
01:27 20.2°C 85% 17.6°C 22.5°C 2.6Kts NNW 0.0mm 1012.4hpa 0.0
01:25 20.2°C 85% 17.6°C 22.5°C 0.0Kts NNW 0.0mm 1012.4hpa 0.0
01:23 20.2°C 84% 17.4°C 22.4°C 1.7Kts NNW 0.0mm 1012.4hpa 0.0
01:21 20.2°C 84% 17.4°C 22.1°C 0.0Kts WNW 0.0mm 1012.4hpa 0.0
01:19 20.2°C 84% 17.4°C 22.1°C 0.0Kts NW 0.0mm 1012.4hpa 0.0
01:17 20.2°C 85% 17.6°C 22.2°C 2.6Kts NW 0.0mm 1012.3hpa 0.0
01:15 20.2°C 84% 17.4°C 22.4°C 2.6Kts NNW 0.0mm 1012.2hpa 0.0
01:13 20.2°C 84% 17.4°C 22.4°C 2.6Kts N 0.0mm 1012.2hpa 0.0
01:11 20.3°C 84% 17.5°C 22.9°C 2.6Kts N 0.0mm 1012.2hpa 0.0
01:09 20.3°C 84% 17.5°C 22.9°C 0.9Kts N 0.0mm 1012.3hpa 0.0
01:07 20.3°C 84% 17.5°C 22.9°C 0.0Kts N 0.0mm 1012.3hpa 0.0
01:05 20.3°C 84% 17.5°C 22.9°C 0.0Kts N 0.0mm 1012.3hpa 0.0
01:03 20.4°C 84% 17.6°C 23.0°C 0.0Kts N 0.0mm 1012.4hpa 0.0
01:01 20.4°C 84% 17.6°C 23.0°C 1.7Kts N 0.0mm 1012.4hpa 0.0
00:59 20.4°C 84% 17.6°C 23.0°C 0.0Kts N 0.0mm 1012.5hpa 0.0
00:57 20.4°C 84% 17.6°C 23.0°C 0.0Kts N 0.0mm 1012.5hpa 0.0
00:55 20.4°C 84% 17.6°C 23.0°C 0.0Kts N 0.0mm 1012.5hpa 0.0
00:53 20.5°C 84% 17.7°C 22.8°C 0.9Kts N 0.0mm 1012.5hpa 0.0
00:51 20.5°C 83% 17.5°C 22.8°C 0.0Kts N 0.0mm 1012.5hpa 0.0
00:49 20.5°C 83% 17.5°C 22.8°C 0.0Kts N 0.0mm 1012.6hpa 0.0
00:47 20.6°C 83% 17.6°C 22.9°C 0.9Kts N 0.0mm 1012.6hpa 0.0
00:45 20.6°C 84% 17.8°C 23.0°C 0.0Kts N 0.0mm 1012.7hpa 0.0
00:43 20.6°C 84% 17.8°C 23.0°C 1.7Kts N 0.0mm 1012.7hpa 0.0
00:41 20.5°C 84% 17.7°C 22.8°C 0.9Kts N 0.0mm 1012.7hpa 0.0
00:39 20.5°C 84% 17.7°C 22.8°C 1.7Kts N 0.0mm 1012.7hpa 0.0
00:37 20.4°C 83% 17.5°C 22.9°C 1.7Kts N 0.0mm 1012.8hpa 0.0
00:35 20.5°C 83% 17.5°C 23.1°C 0.0Kts N 0.0mm 1012.7hpa 0.0
00:33 20.6°C 83% 17.6°C 23.2°C 0.0Kts N 0.0mm 1012.8hpa 0.0
00:31 20.6°C 83% 17.6°C 23.2°C 0.0Kts N 0.0mm 1012.7hpa 0.0
00:29 20.6°C 83% 17.6°C 23.2°C 0.0Kts N 0.0mm 1012.8hpa 0.0
00:27 20.7°C 83% 17.7°C 23.0°C 0.0Kts N 0.0mm 1012.8hpa 0.0
00:25 20.7°C 83% 17.7°C 23.0°C 0.0Kts N 0.0mm 1012.8hpa 0.0
00:23 20.7°C 83% 17.7°C 23.0°C 0.0Kts ENE 0.0mm 1012.8hpa 0.0
00:21 20.7°C 83% 17.7°C 23.0°C 0.0Kts ENE 0.0mm 1012.8hpa 0.0
00:19 20.7°C 83% 17.7°C 23.0°C 0.9Kts ENE 0.0mm 1012.8hpa 0.0
00:17 20.7°C 83% 17.7°C 23.4°C 0.9Kts ENE 0.0mm 1012.8hpa 0.0
00:15 20.7°C 83% 17.7°C 23.4°C 0.0Kts ENE 0.0mm 1012.8hpa 0.0
00:13 20.7°C 83% 17.7°C 23.4°C 0.9Kts ENE 0.0mm 1012.8hpa 0.0
00:11 20.7°C 83% 17.7°C 23.4°C 1.7Kts ENE 0.0mm 1012.8hpa 0.0
00:09 20.7°C 83% 17.7°C 23.4°C 0.9Kts ENE 0.0mm 1012.8hpa 0.0
00:07 20.8°C 83% 17.8°C 23.5°C 0.0Kts ENE 0.0mm 1012.9hpa 0.0
00:05 20.8°C 83% 17.8°C 23.2°C 0.0Kts ENE 0.0mm 1012.9hpa 0.0
00:03 20.8°C 83% 17.8°C 23.2°C 0.0Kts ENE 0.0mm 1012.8hpa 0.0
00:01 20.8°C 83% 17.8°C 23.2°C 0.0Kts ENE 0.0mm 1012.8hpa 0.0